Time;durP1;ratioP1;P1;durP2;ratioP2;P2;SDS_P1;SDS_P2;PMS_P1;PMS_P2;Temp;Humidity;BMP_temperature;BMP_pressure;BME280_temperature;BME280_humidity;BME280_pressure;Samples;Min_cycle;Max_cycle;Signal;HPM_P1;HPM_P2
2022/03/05 00:01:24;;;;;;;27.65;10.50;;;4.00;99.90;;;;;;5024091;28;20041;-65
2022/03/05 00:03:50;;;;;;;26.52;11.13;;;3.90;99.90;;;;;;5033655;28;20050;-66
2022/03/05 00:06:16;;;;;;;24.45;9.93;;;3.90;99.90;;;;;;5036320;28;20143;-65
2022/03/05 00:08:41;;;;;;;26.38;9.90;;;3.90;99.90;;;;;;5046426;28;20036;-62
2022/03/05 00:11:07;;;;;;;26.95;10.00;;;3.90;99.90;;;;;;5031557;28;20040;-63
2022/03/05 00:13:35;;;;;;;28.08;9.70;;;3.80;99.90;;;;;;5033480;28;20045;-63
2022/03/05 00:16:02;;;;;;;26.45;9.73;;;3.80;99.90;;;;;;5023779;28;20112;-68
2022/03/05 00:18:27;;;;;;;27.23;9.98;;;3.80;99.90;;;;;;5032118;28;20079;-64
2022/03/05 00:20:53;;;;;;;28.05;9.13;;;3.70;99.90;;;;;;5035682;28;20717;-66
2022/03/05 00:23:18;;;;;;;27.90;9.95;;;3.70;99.90;;;;;;5020652;28;21800;-63
2022/03/05 00:25:44;;;;;;;29.17;9.75;;;3.70;99.90;;;;;;5028264;28;20101;-63
2022/03/05 00:28:10;;;;;;;29.33;11.00;;;3.60;99.90;;;;;;5047284;28;20029;-68
2022/03/05 00:30:36;;;;;;;26.13;9.77;;;3.60;99.90;;;;;;5034814;28;20040;-67
2022/03/05 00:33:02;;;;;;;25.77;9.93;;;3.60;99.90;;;;;;5035651;28;20120;-66
2022/03/05 00:35:29;;;;;;;27.70;9.57;;;3.50;99.90;;;;;;5034204;28;20079;-64
2022/03/05 00:37:55;;;;;;;29.00;9.75;;;3.50;99.90;;;;;;5033848;28;20057;-66
2022/03/05 00:40:21;;;;;;;27.63;10.40;;;3.50;99.90;;;;;;5033768;28;20072;-66
2022/03/05 00:42:46;;;;;;;30.02;10.55;;;3.50;99.90;;;;;;5022390;28;20044;-63
2022/03/05 00:45:12;;;;;;;27.98;10.20;;;3.40;99.90;;;;;;5052724;28;20025;-63
2022/03/05 00:47:37;;;;;;;26.58;10.50;;;3.40;99.90;;;;;;5052216;28;20036;-63
2022/03/05 00:50:05;;;;;;;28.15;10.80;;;3.40;99.90;;;;;;5037901;28;20108;-63
2022/03/05 00:52:31;;;;;;;29.48;10.98;;;3.30;99.90;;;;;;5032726;28;20025;-63
2022/03/05 00:54:56;;;;;;;28.70;9.88;;;3.30;99.90;;;;;;5030612;28;20025;-63
2022/03/05 00:57:22;;;;;;;30.55;10.40;;;3.30;99.90;;;;;;5022337;28;20044;-62
2022/03/05 00:59:48;;;;;;;30.58;11.43;;;3.30;99.90;;;;;;5044937;28;20029;-63
2022/03/05 01:02:13;;;;;;;28.80;10.27;;;3.20;99.90;;;;;;5053576;28;20044;-63
2022/03/05 01:04:39;;;;;;;29.20;11.38;;;3.20;99.90;;;;;;5051418;28;20052;-63
2022/03/05 01:07:04;;;;;;;26.08;9.13;;;3.20;99.90;;;;;;5044559;28;20103;-63
2022/03/05 01:09:30;;;;;;;27.15;10.80;;;3.10;99.90;;;;;;5036055;28;20121;-63
2022/03/05 01:11:55;;;;;;;27.77;11.15;;;3.10;99.90;;;;;;5037920;28;20065;-63
2022/03/05 01:14:21;;;;;;;30.98;11.70;;;3.10;99.90;;;;;;5036692;28;20029;-64
2022/03/05 01:16:47;;;;;;;30.88;10.80;;;3.10;99.90;;;;;;5045666;28;20104;-63
2022/03/05 01:19:13;;;;;;;27.98;9.88;;;3.00;99.90;;;;;;5032640;28;20029;-64
2022/03/05 01:21:38;;;;;;;26.85;10.90;;;3.00;99.90;;;;;;5049850;28;20527;-63
2022/03/05 01:24:05;;;;;;;29.45;10.48;;;3.00;99.90;;;;;;5043280;28;20409;-63
2022/03/05 01:26:30;;;;;;;27.02;10.52;;;3.00;99.90;;;;;;5036578;28;20029;-63
2022/03/05 01:28:56;;;;;;;25.50;9.60;;;2.90;99.90;;;;;;5044406;28;20036;-63
2022/03/05 01:31:22;;;;;;;31.67;10.18;;;2.90;99.90;;;;;;5034422;28;20039;-63
2022/03/05 01:33:48;;;;;;;25.75;8.65;;;2.90;99.90;;;;;;5033614;28;20037;-63
2022/03/05 01:36:13;;;;;;;30.40;10.50;;;2.90;99.90;;;;;;5029529;28;20029;-63
2022/03/05 01:38:39;;;;;;;34.83;10.82;;;2.80;99.90;;;;;;5033296;28;20077;-63
2022/03/05 01:41:04;;;;;;;24.23;9.32;;;2.80;99.90;;;;;;5033199;28;20029;-63
2022/03/05 01:43:30;;;;;;;28.13;10.48;;;2.80;99.90;;;;;;5033138;28;20044;-64
2022/03/05 01:45:55;;;;;;;28.45;11.60;;;2.80;99.90;;;;;;5032398;28;20079;-64
2022/03/05 01:48:21;;;;;;;28.83;11.32;;;2.70;99.90;;;;;;5032683;28;20034;-64
2022/03/05 01:50:47;;;;;;;26.70;10.23;;;2.70;99.90;;;;;;5032526;28;20029;-64
2022/03/05 01:53:13;;;;;;;27.60;10.50;;;2.70;99.90;;;;;;5038067;28;20086;-64
2022/03/05 01:55:40;;;;;;;25.60;9.48;;;2.60;99.90;;;;;;5034079;28;20104;-63
2022/03/05 01:58:06;;;;;;;31.88;11.52;;;2.60;99.90;;;;;;5043820;28;20100;-63
2022/03/05 02:00:31;;;;;;;31.33;10.82;;;2.60;99.90;;;;;;5031859;28;20163;-63
2022/03/05 02:02:57;;;;;;;26.70;9.63;;;2.60;99.90;;;;;;5031667;28;20099;-62
2022/03/05 02:05:23;;;;;;;29.13;10.65;;;2.60;99.90;;;;;;5032749;28;20044;-64
2022/03/05 02:07:49;;;;;;;27.55;10.07;;;2.50;99.90;;;;;;5031817;28;20029;-63
2022/03/05 02:10:15;;;;;;;26.95;9.60;;;2.50;99.90;;;;;;5030675;28;20025;-63
2022/03/05 02:12:41;;;;;;;30.42;10.68;;;2.50;99.90;;;;;;5031785;28;20057;-63
2022/03/05 02:15:07;;;;;;;29.33;9.75;;;2.50;99.90;;;;;;5032817;28;20081;-63
2022/03/05 02:17:34;;;;;;;28.00;10.13;;;2.50;99.90;;;;;;5029316;28;20083;-63
2022/03/05 02:20:00;;;;;;;34.58;11.02;;;2.40;99.90;;;;;;5030681;28;20109;-62
2022/03/05 02:22:26;;;;;;;28.40;10.43;;;2.40;99.90;;;;;;5030608;28;20120;-63
2022/03/05 02:24:54;;;;;;;27.88;10.98;;;2.40;99.90;;;;;;5031144;28;20521;-63
2022/03/05 02:27:22;;;;;;;28.20;9.38;;;2.40;99.90;;;;;;5031606;28;20052;-62
2022/03/05 02:29:47;;;;;;;29.33;10.82;;;2.30;99.90;;;;;;5031876;28;20049;-63
2022/03/05 02:32:13;;;;;;;33.13;10.80;;;2.40;99.90;;;;;;5032903;28;20151;-63
2022/03/05 02:34:38;;;;;;;26.48;9.82;;;2.30;99.90;;;;;;5035612;28;20053;-64
2022/03/05 02:37:04;;;;;;;27.17;10.25;;;2.30;99.90;;;;;;5035005;28;20038;-63
2022/03/05 02:39:30;;;;;;;27.40;10.23;;;2.30;99.90;;;;;;5035206;28;20049;-63
2022/03/05 02:41:56;;;;;;;30.95;10.52;;;2.30;99.90;;;;;;5036231;28;20041;-63
2022/03/05 02:44:22;;;;;;;27.55;10.73;;;2.30;99.90;;;;;;5035750;28;20057;-63
2022/03/05 02:46:50;;;;;;;32.45;11.60;;;2.20;99.90;;;;;;5035786;28;20056;-63
2022/03/05 02:49:15;;;;;;;25.63;10.27;;;2.20;99.90;;;;;;5036143;28;20116;-63
2022/03/05 02:51:41;;;;;;;30.90;11.57;;;2.20;99.90;;;;;;5035963;28;20597;-63
2022/03/05 02:54:07;;;;;;;35.55;11.35;;;2.20;99.90;;;;;;5035755;28;20040;-63
2022/03/05 02:56:33;;;;;;;32.28;12.30;;;2.20;99.90;;;;;;5034122;28;20060;-63
2022/03/05 02:58:59;;;;;;;29.90;10.98;;;2.10;99.90;;;;;;5035422;28;20102;-63
2022/03/05 03:01:25;;;;;;;32.67;12.13;;;2.20;99.90;;;;;;5035053;28;20041;-63
2022/03/05 03:03:51;;;;;;;32.30;10.93;;;2.10;99.90;;;;;;5035982;28;20036;-63
2022/03/05 03:06:17;;;;;;;31.92;11.85;;;2.10;99.90;;;;;;5034026;28;20458;-63
2022/03/05 03:08:43;;;;;;;31.90;12.50;;;2.10;99.90;;;;;;5035729;28;20037;-63
2022/03/05 03:11:08;;;;;;;32.20;11.13;;;2.10;99.90;;;;;;5035240;28;20114;-63
2022/03/05 03:13:34;;;;;;;32.42;10.80;;;2.10;99.90;;;;;;5035855;28;20495;-63
2022/03/05 03:15:59;;;;;;;32.72;12.52;;;2.10;99.90;;;;;;5035641;28;20072;-65
2022/03/05 03:18:25;;;;;;;31.50;11.45;;;2.10;99.90;;;;;;5034901;28;20029;-62
2022/03/05 03:20:51;;;;;;;30.65;10.98;;;2.00;99.90;;;;;;5035238;28;20373;-65
2022/03/05 03:23:16;;;;;;;29.30;10.95;;;2.00;99.90;;;;;;5030559;28;20081;-67
2022/03/05 03:25:42;;;;;;;29.63;11.68;;;2.00;99.90;;;;;;5030386;28;20033;-67
2022/03/05 03:28:08;;;;;;;27.52;10.40;;;2.00;99.90;;;;;;5035679;28;20033;-66
2022/03/05 03:30:34;;;;;;;33.03;11.63;;;2.00;99.90;;;;;;5034506;28;20057;-66
2022/03/05 03:33:00;;;;;;;34.42;11.95;;;2.00;99.90;;;;;;5035047;28;20026;-64
2022/03/05 03:35:27;;;;;;;32.30;12.18;;;2.00;99.90;;;;;;5033253;28;20491;-64
2022/03/05 03:37:53;;;;;;;31.60;11.32;;;1.90;99.90;;;;;;5045654;28;20036;-66
2022/03/05 03:40:19;;;;;;;31.83;12.20;;;1.90;99.90;;;;;;5033754;28;20036;-65
2022/03/05 03:42:48;;;;;;;31.15;11.88;;;1.90;99.90;;;;;;5032011;28;20095;-65
2022/03/05 03:45:15;;;;;;;31.67;11.77;;;1.90;99.90;;;;;;5033115;28;20720;-63
2022/03/05 03:47:43;;;;;;;32.45;12.25;;;1.80;99.90;;;;;;5034334;28;20025;-67
2022/03/05 03:50:11;;;;;;;33.72;12.23;;;1.80;99.90;;;;;;5034620;28;20078;-63
2022/03/05 03:52:36;;;;;;;31.15;11.48;;;1.80;99.90;;;;;;5033596;28;20021;-65
2022/03/05 03:55:04;;;;;;;31.48;11.48;;;1.80;99.90;;;;;;5033732;28;20032;-64
2022/03/05 03:57:30;;;;;;;32.15;11.20;;;1.70;99.90;;;;;;5034487;28;20033;-66
2022/03/05 03:59:55;;;;;;;30.85;10.68;;;1.70;99.90;;;;;;5031854;28;20025;-64
2022/03/05 04:02:22;;;;;;;34.10;12.18;;;1.60;99.90;;;;;;5034073;28;20037;-67
2022/03/05 04:04:48;;;;;;;34.67;12.93;;;1.60;99.90;;;;;;5034297;28;20036;-65
2022/03/05 04:09:58;;;;;;;31.17;11.57;;;1.60;99.90;;;;;;5033994;28;20527;-63
2022/03/05 04:12:24;;;;;;;33.33;12.18;;;1.60;99.90;;;;;;5034840;28;20146;-66
2022/03/05 04:14:50;;;;;;;32.53;12.30;;;1.60;99.90;;;;;;5033117;28;20494;-65
2022/03/05 04:17:16;;;;;;;33.03;12.68;;;1.50;99.90;;;;;;5033002;28;20047;-64
2022/03/05 04:19:42;;;;;;;31.83;12.63;;;1.50;99.90;;;;;;5034485;28;20393;-65
2022/03/05 04:22:08;;;;;;;33.20;12.75;;;1.50;99.90;;;;;;5034044;28;20521;-68
2022/03/05 04:24:34;;;;;;;38.05;13.95;;;1.50;99.90;;;;;;5032828;28;20120;-65
2022/03/05 04:26:59;;;;;;;41.83;15.55;;;1.40;99.90;;;;;;5033639;28;20060;-66
2022/03/05 04:29:25;;;;;;;34.70;14.07;;;1.40;99.90;;;;;;5034116;28;20061;-67
2022/03/05 04:31:51;;;;;;;36.35;14.18;;;1.30;99.90;;;;;;5034630;28;20369;-67
2022/03/05 04:34:16;;;;;;;37.08;15.82;;;1.30;99.90;;;;;;5033422;28;20022;-65
2022/03/05 04:36:42;;;;;;;45.00;16.85;;;1.30;99.90;;;;;;5034256;28;20087;-64
2022/03/05 04:39:08;;;;;;;42.13;16.25;;;1.30;99.90;;;;;;5033792;28;20109;-65
2022/03/05 04:41:33;;;;;;;39.42;16.70;;;1.20;99.90;;;;;;5033652;28;20044;-66
2022/03/05 04:43:59;;;;;;;37.40;16.10;;;1.20;99.90;;;;;;5033909;28;20041;-65
2022/03/05 04:46:24;;;;;;;37.83;15.00;;;1.20;99.90;;;;;;5033557;28;20041;-65
2022/03/05 04:48:50;;;;;;;37.75;15.85;;;1.20;99.90;;;;;;5033584;28;20065;-66
2022/03/05 04:51:15;;;;;;;36.58;14.60;;;1.20;99.90;;;;;;5032640;28;20064;-63
2022/03/05 04:53:41;;;;;;;40.42;16.23;;;1.10;99.90;;;;;;5033712;28;20466;-63
2022/03/05 04:56:06;;;;;;;42.80;17.10;;;1.10;99.90;;;;;;5033567;28;20653;-66
2022/03/05 04:58:32;;;;;;;46.40;18.15;;;1.10;99.90;;;;;;5034040;28;20382;-66
2022/03/05 05:00:57;;;;;;;39.30;17.45;;;1.10;99.90;;;;;;5033048;28;20032;-65
2022/03/05 05:03:23;;;;;;;56.30;17.52;;;1.10;99.90;;;;;;5033754;28;20037;-64
2022/03/05 05:05:48;;;;;;;42.20;19.10;;;1.10;99.90;;;;;;5033571;28;20109;-67
2022/03/05 05:08:14;;;;;;;44.50;18.73;;;1.10;99.90;;;;;;5033838;28;20126;-66
2022/03/05 05:10:40;;;;;;;43.20;18.33;;;1.10;99.90;;;;;;5031760;28;20029;-67
2022/03/05 05:13:05;;;;;;;38.83;17.77;;;1.10;99.90;;;;;;5034111;28;20032;-65
2022/03/05 05:15:31;;;;;;;39.33;18.52;;;1.10;99.90;;;;;;5034086;28;20064;-68
2022/03/05 05:17:59;;;;;;;44.70;17.77;;;1.10;99.90;;;;;;5033138;28;20472;-63
2022/03/05 05:20:25;;;;;;;74.00;19.67;;;1.10;99.90;;;;;;5032791;28;20037;-66
2022/03/05 05:22:51;;;;;;;43.10;16.42;;;1.10;99.90;;;;;;5034059;28;20460;-62
2022/03/05 05:25:18;;;;;;;42.08;17.42;;;1.10;99.90;;;;;;5032658;28;20521;-68
2022/03/05 05:27:44;;;;;;;118.97;24.38;;;1.10;99.90;;;;;;5033106;28;20485;-67
2022/03/05 05:30:10;;;;;;;53.03;18.00;;;1.10;99.90;;;;;;5032886;28;20033;-69
2022/03/05 05:32:35;;;;;;;68.72;18.65;;;1.10;99.90;;;;;;5032735;28;20033;-65
2022/03/05 05:35:02;;;;;;;46.60;18.23;;;1.00;99.90;;;;;;5031376;28;20033;-66
2022/03/05 05:37:27;;;;;;;42.58;18.30;;;1.00;99.90;;;;;;5026071;28;20450;-67
2022/03/05 05:39:53;;;;;;;44.40;17.92;;;1.00;99.90;;;;;;5032634;28;20079;-63
2022/03/05 05:42:18;;;;;;;40.28;16.27;;;1.00;99.90;;;;;;5033080;28;20041;-63
2022/03/05 05:44:44;;;;;;;46.50;16.77;;;1.00;99.90;;;;;;5032372;28;20042;-66
2022/03/05 05:47:09;;;;;;;49.20;17.63;;;1.00;99.90;;;;;;5033198;28;20037;-64
2022/03/05 05:49:36;;;;;;;45.28;18.60;;;1.00;99.90;;;;;;5030845;28;20025;-63
2022/03/05 05:52:03;;;;;;;45.22;17.98;;;1.00;99.90;;;;;;5029653;28;20389;-66
2022/03/05 05:54:28;;;;;;;45.13;17.63;;;1.00;99.90;;;;;;5022581;28;20547;-67
2022/03/05 05:56:54;;;;;;;47.45;19.73;;;1.00;99.90;;;;;;5031372;28;20112;-64
2022/03/05 05:59:20;;;;;;;47.50;19.75;;;1.00;99.90;;;;;;5031013;28;20036;-64
2022/03/05 06:01:46;;;;;;;48.90;18.80;;;1.00;99.90;;;;;;5032541;28;20045;-65
2022/03/05 06:04:11;;;;;;;50.58;18.30;;;0.90;99.90;;;;;;5032773;28;20029;-67
2022/03/05 06:06:37;;;;;;;51.13;19.30;;;1.00;99.90;;;;;;5031852;28;20040;-64
2022/03/05 06:09:03;;;;;;;51.83;21.58;;;0.90;99.90;;;;;;5032597;28;20032;-65
2022/03/05 06:11:29;;;;;;;50.17;19.17;;;0.90;99.90;;;;;;5032515;28;20033;-67
2022/03/05 06:13:55;;;;;;;47.13;19.63;;;0.90;99.90;;;;;;5032568;28;20029;-66
2022/03/05 06:16:21;;;;;;;49.15;19.08;;;0.90;99.90;;;;;;5032346;28;20084;-64
2022/03/05 06:18:47;;;;;;;51.72;18.85;;;0.90;99.90;;;;;;5032065;28;20022;-66
2022/03/05 06:21:13;;;;;;;52.17;19.45;;;0.90;99.90;;;;;;5031445;28;20439;-65
2022/03/05 06:23:39;;;;;;;49.90;19.20;;;0.90;99.90;;;;;;5031285;28;20042;-63
2022/03/05 06:26:05;;;;;;;57.95;21.38;;;0.90;99.90;;;;;;5031502;28;20022;-66
2022/03/05 06:28:32;;;;;;;48.92;20.58;;;0.90;99.90;;;;;;5030621;28;20033;-63
2022/03/05 06:30:57;;;;;;;51.15;20.70;;;0.90;99.90;;;;;;5032305;28;20117;-65
2022/03/05 06:33:23;;;;;;;55.53;21.17;;;0.90;99.90;;;;;;5032932;28;20116;-66
2022/03/05 06:35:48;;;;;;;51.38;19.65;;;0.90;99.90;;;;;;5032744;28;20030;-66
2022/03/05 06:38:14;;;;;;;50.80;21.92;;;0.90;99.90;;;;;;5033233;28;20037;-63
2022/03/05 06:40:40;;;;;;;51.00;20.95;;;0.90;99.90;;;;;;5032798;28;20033;-66
2022/03/05 06:43:05;;;;;;;76.40;22.98;;;0.90;99.90;;;;;;5030794;28;20091;-65
2022/03/05 06:45:31;;;;;;;53.05;21.08;;;1.00;99.90;;;;;;5032451;28;20080;-67
2022/03/05 06:47:57;;;;;;;50.05;21.52;;;1.00;99.90;;;;;;5032337;28;20028;-64
2022/03/05 06:50:22;;;;;;;47.97;19.08;;;1.00;99.90;;;;;;5032501;28;20072;-64
2022/03/05 06:52:48;;;;;;;46.08;18.88;;;1.00;99.90;;;;;;5031558;28;20045;-64
2022/03/05 06:55:15;;;;;;;49.03;17.83;;;1.10;99.90;;;;;;5031796;28;20033;-67
2022/03/05 06:57:41;;;;;;;43.38;17.85;;;1.10;99.90;;;;;;5031669;28;20599;-67
2022/03/05 07:00:08;;;;;;;42.72;18.05;;;1.10;99.90;;;;;;5032278;28;20080;-65
2022/03/05 07:02:34;;;;;;;55.63;19.27;;;1.10;99.90;;;;;;5031210;28;20041;-66
2022/03/05 07:04:59;;;;;;;46.25;17.50;;;1.20;99.90;;;;;;5031088;28;20025;-65
2022/03/05 07:07:25;;;;;;;41.90;17.60;;;1.20;99.90;;;;;;5030786;28;20036;-66
2022/03/05 07:09:51;;;;;;;48.13;17.08;;;1.20;99.90;;;;;;5032238;28;20516;-66
2022/03/05 07:12:16;;;;;;;44.75;17.00;;;1.20;99.90;;;;;;5031679;28;20036;-66
2022/03/05 07:14:44;;;;;;;45.17;18.30;;;1.30;99.90;;;;;;5031615;28;20030;-64
2022/03/05 07:17:10;;;;;;;46.97;16.98;;;1.40;99.90;;;;;;5031635;28;20456;-62
2022/03/05 07:19:36;;;;;;;44.72;16.95;;;1.40;99.90;;;;;;5035250;28;20032;-64
2022/03/05 07:22:02;;;;;;;47.47;16.45;;;1.50;99.90;;;;;;5035294;28;20449;-65
2022/03/05 07:24:27;;;;;;;42.83;15.90;;;1.50;99.90;;;;;;5034967;28;20478;-67
2022/03/05 07:26:53;;;;;;;41.85;16.73;;;1.60;99.90;;;;;;5035016;28;20504;-66
2022/03/05 07:29:18;;;;;;;42.65;16.52;;;1.70;99.90;;;;;;5035407;28;20409;-64
2022/03/05 07:31:45;;;;;;;43.75;15.82;;;1.70;99.90;;;;;;5035565;28;20458;-66
2022/03/05 07:34:10;;;;;;;36.95;14.75;;;1.80;99.90;;;;;;5034469;28;20369;-68
2022/03/05 07:36:36;;;;;;;42.22;15.85;;;1.90;99.90;;;;;;5030323;28;20030;-65
2022/03/05 07:39:01;;;;;;;46.28;17.50;;;1.90;99.90;;;;;;5033220;28;20041;-66
2022/03/05 07:41:27;;;;;;;46.03;15.70;;;2.00;99.90;;;;;;5035163;28;20049;-69
2022/03/05 07:43:53;;;;;;;39.33;15.60;;;2.00;99.90;;;;;;5041482;28;20052;-69
2022/03/05 07:46:18;;;;;;;39.80;15.10;;;2.10;99.90;;;;;;5037030;28;20112;-66
2022/03/05 07:48:44;;;;;;;37.30;15.27;;;2.20;99.90;;;;;;5038906;28;20025;-64
2022/03/05 07:51:09;;;;;;;39.78;14.60;;;2.20;99.90;;;;;;5035424;28;20032;-68
2022/03/05 07:53:35;;;;;;;38.60;14.95;;;2.30;99.90;;;;;;5027752;28;20028;-65
2022/03/05 07:56:01;;;;;;;39.85;15.23;;;2.40;99.90;;;;;;5035225;28;20041;-66
2022/03/05 07:58:26;;;;;;;36.00;15.05;;;2.50;99.90;;;;;;5034033;28;20030;-68
2022/03/05 08:00:52;;;;;;;40.53;16.70;;;2.60;99.90;;;;;;5034543;28;20407;-64
2022/03/05 08:03:18;;;;;;;36.72;14.32;;;2.80;99.90;;;;;;5034180;28;20060;-67
2022/03/05 08:05:44;;;;;;;43.65;16.52;;;2.90;99.90;;;;;;5046852;28;20032;-70
2022/03/05 08:08:10;;;;;;;36.83;14.70;;;3.00;99.90;;;;;;5034714;28;20021;-67
2022/03/05 08:10:36;;;;;;;39.00;14.88;;;3.10;99.90;;;;;;5035238;28;20109;-66
2022/03/05 08:13:02;;;;;;;40.95;15.80;;;3.20;99.90;;;;;;5027349;28;20033;-70
2022/03/05 08:15:28;;;;;;;35.63;13.88;;;3.40;99.90;;;;;;5036665;28;20034;-67
2022/03/05 08:17:59;;;;;;;40.10;15.20;;;3.50;99.90;;;;;;5051132;28;20056;-67
2022/03/05 08:20:27;;;;;;;37.47;14.23;;;3.70;99.90;;;;;;5052296;28;20111;-68
2022/03/05 08:22:53;;;;;;;35.08;14.25;;;3.90;99.90;;;;;;5040122;28;20052;-66
2022/03/05 08:25:19;;;;;;;43.28;14.90;;;4.10;99.90;;;;;;5037195;28;20410;-65
2022/03/05 08:27:45;;;;;;;36.45;14.15;;;4.40;99.90;;;;;;5033981;28;20064;-68
2022/03/05 08:30:12;;;;;;;38.05;13.70;;;4.70;99.90;;;;;;5029980;28;20030;-68
2022/03/05 08:32:38;;;;;;;36.50;13.32;;;5.10;99.90;;;;;;5032428;28;20037;-68
2022/03/05 08:35:05;;;;;;;39.40;14.48;;;5.60;99.90;;;;;;5033213;28;20036;-66
2022/03/05 08:37:31;;;;;;;34.10;14.38;;;6.20;99.90;;;;;;5047886;28;20037;-68
2022/03/05 08:39:56;;;;;;;36.63;13.77;;;6.90;99.90;;;;;;5052599;28;20472;-65
2022/03/05 08:42:22;;;;;;;33.38;13.50;;;7.60;99.90;;;;;;5033705;28;20123;-67
2022/03/05 08:44:47;;;;;;;37.22;13.50;;;8.40;99.90;;;;;;5033656;28;20095;-67
2022/03/05 08:47:13;;;;;;;33.45;13.70;;;9.10;99.90;;;;;;5035954;28;20029;-66
2022/03/05 08:49:38;;;;;;;32.65;13.55;;;9.90;99.90;;;;;;5045802;28;20026;-63
2022/03/05 08:52:05;;;;;;;40.40;14.80;;;10.70;99.90;;;;;;5038568;28;20032;-64
2022/03/05 08:54:30;;;;;;;33.58;15.18;;;11.30;99.10;;;;;;5033133;28;20104;-65
2022/03/05 08:56:56;;;;;;;34.00;15.57;;;11.80;97.70;;;;;;5033701;28;20397;-66
2022/03/05 08:59:21;;;;;;;32.70;15.35;;;12.40;96.20;;;;;;5033661;28;20036;-63
2022/03/05 09:01:47;;;;;;;31.58;13.65;;;13.00;95.40;;;;;;5033510;28;20108;-65
2022/03/05 09:04:13;;;;;;;34.33;15.88;;;13.60;94.00;;;;;;5038880;28;20034;-64
2022/03/05 09:06:39;;;;;;;31.80;15.23;;;14.20;92.20;;;;;;5039361;28;20036;-66
2022/03/05 09:09:05;;;;;;;33.97;15.27;;;14.80;90.70;;;;;;5040330;28;20428;-65
2022/03/05 09:11:31;;;;;;;32.90;15.93;;;15.40;87.70;;;;;;5032880;28;20040;-65
2022/03/05 09:13:57;;;;;;;37.55;16.25;;;15.70;84.60;;;;;;5033125;28;20108;-65
2022/03/05 09:16:22;;;;;;;34.67;15.75;;;15.90;80.40;;;;;;5034582;28;20047;-62
2022/03/05 09:18:48;;;;;;;36.63;17.90;;;16.00;79.40;;;;;;5052284;28;20082;-64
2022/03/05 09:21:14;;;;;;;34.03;15.60;;;16.10;77.90;;;;;;5033405;28;20457;-65
2022/03/05 09:23:39;;;;;;;36.47;17.42;;;16.50;75.20;;;;;;5033260;28;20056;-68
2022/03/05 09:26:05;;;;;;;32.63;16.33;;;16.60;74.70;;;;;;5033250;28;20037;-64
2022/03/05 09:28:30;;;;;;;34.70;16.92;;;16.90;75.00;;;;;;5047951;28;20029;-67
2022/03/05 09:30:58;;;;;;;32.88;16.70;;;17.20;74.80;;;;;;5034627;28;20076;-66
2022/03/05 09:33:24;;;;;;;33.65;16.77;;;17.40;73.90;;;;;;5032703;28;20079;-66
2022/03/05 09:35:50;;;;;;;34.20;16.40;;;17.60;72.20;;;;;;5032426;28;20058;-68
2022/03/05 09:38:16;;;;;;;31.52;16.27;;;17.60;71.30;;;;;;5033624;28;20026;-65
2022/03/05 09:40:42;;;;;;;34.03;15.77;;;17.50;71.00;;;;;;5032794;28;20033;-64
2022/03/05 09:43:07;;;;;;;32.08;16.52;;;17.30;70.80;;;;;;5031841;28;20397;-67
2022/03/05 09:45:34;;;;;;;31.38;16.38;;;17.10;71.70;;;;;;5032167;28;20036;-68
2022/03/05 09:48:00;;;;;;;32.55;16.67;;;17.20;72.40;;;;;;5034619;28;20202;-68
2022/03/05 09:50:32;;;;;;;34.70;16.92;;;17.40;71.30;;;;;;5039524;28;20034;-64
2022/03/05 09:52:58;;;;;;;33.58;17.00;;;17.50;71.10;;;;;;5050909;28;20465;-65
2022/03/05 09:55:23;;;;;;;32.85;16.58;;;17.50;71.30;;;;;;5036146;28;20044;-64
2022/03/05 09:57:49;;;;;;;32.47;16.88;;;17.70;71.20;;;;;;5033216;28;20441;-66
2022/03/05 10:00:14;;;;;;;33.40;16.42;;;17.50;70.20;;;;;;5036394;28;20030;-65
2022/03/05 10:02:41;;;;;;;32.25;16.67;;;17.40;69.70;;;;;;5033048;28;20428;-67
2022/03/05 10:05:15;;;;;;;32.65;16.70;;;17.20;69.70;;;;;;5031279;28;20029;-66
2022/03/05 10:08:07;;;;;;;33.92;17.17;;;17.10;69.90;;;;;;5033015;28;20030;-63
2022/03/05 10:10:45;;;;;;;32.63;15.50;;;17.00;70.60;;;;;;5032853;28;20462;-64
2022/03/05 10:13:31;;;;;;;32.90;16.45;;;17.30;68.80;;;;;;5032336;28;20037;-65
2022/03/05 10:16:50;;;;;;;34.40;17.60;;;17.50;69.60;;;;;;5033453;28;20472;-67
2022/03/05 10:19:21;;;;;;;33.80;16.80;;;17.80;69.00;;;;;;5031146;28;20033;-68
2022/03/05 10:22:01;;;;;;;33.60;17.75;;;18.10;67.30;;;;;;5032395;28;20033;-65
2022/03/05 10:24:44;;;;;;;31.95;15.60;;;18.30;67.70;;;;;;5034142;28;20049;-65
2022/03/05 10:27:10;;;;;;;31.98;16.73;;;18.60;65.20;;;;;;5036552;28;20097;-66
2022/03/05 10:29:39;;;;;;;33.63;16.42;;;18.60;65.20;;;;;;5034551;28;20113;-65
2022/03/05 10:32:08;;;;;;;32.42;15.77;;;18.70;65.50;;;;;;5025834;28;20045;-64
2022/03/05 10:34:44;;;;;;;34.83;17.13;;;18.70;64.20;;;;;;5025845;28;20063;-64
2022/03/05 10:37:10;;;;;;;31.58;16.80;;;18.70;63.80;;;;;;5033147;28;20466;-66
2022/03/05 10:39:36;;;;;;;32.70;16.30;;;18.80;63.30;;;;;;5033838;28;20477;-67
2022/03/05 10:42:03;;;;;;;33.33;17.27;;;18.80;63.80;;;;;;5029881;28;20069;-67
2022/03/05 10:44:28;;;;;;;33.60;17.13;;;18.70;64.10;;;;;;5030655;28;20025;-64
2022/03/05 10:46:55;;;;;;;31.42;16.40;;;18.90;62.40;;;;;;5030682;28;20029;-65
2022/03/05 10:49:25;;;;;;;31.73;15.82;;;19.10;62.50;;;;;;5031291;28;20025;-65
2022/03/05 10:52:02;;;;;;;33.03;17.52;;;19.10;62.80;;;;;;5031915;28;20025;-67
2022/03/05 10:54:38;;;;;;;31.88;16.83;;;19.20;62.10;;;;;;5035474;28;20029;-65
2022/03/05 10:57:21;;;;;;;32.28;16.92;;;19.30;62.20;;;;;;5033612;28;20472;-65
2022/03/05 10:59:52;;;;;;;34.90;17.77;;;19.60;62.70;;;;;;5033468;28;20112;-66
2022/03/05 11:02:20;;;;;;;35.63;17.73;;;19.80;61.00;;;;;;5033867;28;20080;-64
2022/03/05 11:04:47;;;;;;;31.65;16.00;;;20.00;60.90;;;;;;5035909;28;20072;-64
2022/03/05 11:07:17;;;;;;;34.28;17.63;;;20.00;59.30;;;;;;5034583;28;20040;-65
2022/03/05 11:09:44;;;;;;;31.63;16.92;;;19.90;59.80;;;;;;5034552;28;20014;-63
2022/03/05 11:12:16;;;;;;;31.20;16.63;;;19.90;59.40;;;;;;5036023;28;20527;-65
2022/03/05 11:14:46;;;;;;;30.55;16.73;;;20.00;57.90;;;;;;5037587;28;20030;-64
2022/03/05 11:17:13;;;;;;;30.60;16.35;;;20.00;58.60;;;;;;5039884;28;20143;-67
2022/03/05 11:19:39;;;;;;;31.33;16.60;;;20.20;58.60;;;;;;5032463;28;20083;-68
2022/03/05 11:22:05;;;;;;;31.80;17.60;;;20.30;57.50;;;;;;5027454;28;20055;-66
2022/03/05 11:24:31;;;;;;;32.00;16.73;;;20.30;57.60;;;;;;5036185;28;20106;-67
2022/03/05 11:26:58;;;;;;;30.17;16.55;;;20.30;58.00;;;;;;5044130;28;20039;-66
2022/03/05 11:29:26;;;;;;;32.72;18.05;;;20.40;57.20;;;;;;5044803;28;20029;-63
2022/03/05 11:31:52;;;;;;;31.23;17.52;;;20.60;56.20;;;;;;5045825;28;20060;-64
2022/03/05 11:34:21;;;;;;;32.30;16.13;;;20.50;56.00;;;;;;5029626;28;20021;-65
2022/03/05 11:36:48;;;;;;;32.20;16.52;;;20.30;56.20;;;;;;5042879;28;20025;-65
2022/03/05 11:39:18;;;;;;;31.25;15.77;;;20.40;57.70;;;;;;5038432;28;20028;-65
2022/03/05 11:41:50;;;;;;;31.83;16.95;;;20.50;56.00;;;;;;5037880;28;20371;-62
2022/03/05 11:44:17;;;;;;;31.38;16.05;;;20.50;56.50;;;;;;5041374;28;20021;-67
2022/03/05 11:46:43;;;;;;;31.30;15.48;;;20.60;55.70;;;;;;5031152;28;20028;-66
2022/03/05 11:49:13;;;;;;;30.83;17.08;;;20.60;54.50;;;;;;5040563;28;20059;-64
2022/03/05 11:52:11;;;;;;;29.90;16.88;;;20.50;54.80;;;;;;5034170;28;20112;-66
2022/03/05 11:54:36;;;;;;;32.40;15.30;;;20.40;55.10;;;;;;5023560;28;20033;-63
2022/03/05 11:57:14;;;;;;;31.10;16.05;;;20.30;55.60;;;;;;5034776;28;20028;-65
2022/03/05 11:59:40;;;;;;;30.88;15.50;;;20.10;54.50;;;;;;5015504;28;20121;-66
2022/03/05 12:02:06;;;;;;;33.17;16.75;;;19.80;54.60;;;;;;5024190;28;20119;-66
2022/03/05 12:04:32;;;;;;;31.48;16.73;;;19.60;55.20;;;;;;5044325;28;20026;-64
2022/03/05 12:07:03;;;;;;;31.10;16.15;;;19.40;55.70;;;;;;5023304;28;20082;-64
2022/03/05 12:09:36;;;;;;;27.73;14.20;;;19.30;56.20;;;;;;5046023;28;20461;-63
2022/03/05 12:12:10;;;;;;;32.95;16.85;;;19.40;55.00;;;;;;5037134;28;20036;-64
2022/03/05 12:14:57;;;;;;;31.42;15.57;;;19.50;54.60;;;;;;5055150;28;20119;-64
2022/03/05 12:17:24;;;;;;;29.05;16.08;;;19.50;54.70;;;;;;5047555;28;20026;-65
2022/03/05 12:19:49;;;;;;;33.55;16.60;;;19.50;54.80;;;;;;5021852;28;20131;-65
2022/03/05 12:22:19;;;;;;;33.97;16.25;;;19.60;55.00;;;;;;5055028;28;20056;-65
2022/03/05 12:24:45;;;;;;;30.48;15.55;;;19.80;53.80;;;;;;5051878;28;20045;-67
2022/03/05 12:27:14;;;;;;;32.50;15.80;;;19.80;54.80;;;;;;5054962;28;20029;-67
2022/03/05 12:29:50;;;;;;;28.13;14.98;;;19.70;55.70;;;;;;5053070;28;20033;-67
2022/03/05 12:32:17;;;;;;;26.70;14.85;;;19.50;54.90;;;;;;5041920;28;20017;-64
2022/03/05 12:34:43;;;;;;;28.90;15.85;;;19.30;57.10;;;;;;5035382;28;20985;-64
2022/03/05 12:37:09;;;;;;;31.10;14.95;;;19.20;57.60;;;;;;5054377;28;20025;-64